createdAt,value
2019-01-11T00:00:01.213Z,1019.77
2019-01-11T00:01:01.856Z,1019.77
2019-01-11T00:02:02.490Z,1019.79
2019-01-11T00:03:03.207Z,1019.79
2019-01-11T00:04:03.839Z,1019.75
2019-01-11T00:05:04.475Z,1019.74
2019-01-11T00:06:05.104Z,1019.69
2019-01-11T00:07:05.745Z,1019.74
2019-01-11T00:08:06.375Z,1019.70
2019-01-11T00:09:07.015Z,1019.75
2019-01-11T00:10:07.766Z,1019.68
2019-01-11T00:11:08.409Z,1019.70
2019-01-11T00:12:09.114Z,1019.70
2019-01-11T00:13:09.754Z,1019.70
2019-01-11T00:14:10.395Z,1019.70
2019-01-11T00:15:11.054Z,1019.68
2019-01-11T00:16:11.678Z,1019.66
2019-01-11T00:17:12.313Z,1019.62
2019-01-11T00:18:12.946Z,1019.60
2019-01-11T00:19:13.585Z,1019.55
2019-01-11T00:20:14.215Z,1019.63
2019-01-11T00:21:14.960Z,1019.58
2019-01-11T00:22:15.554Z,1019.61
2019-01-11T00:23:16.185Z,1019.53
2019-01-11T00:24:16.824Z,1019.56
2019-01-11T00:25:17.458Z,1019.56
2019-01-11T00:26:18.092Z,1019.62
2019-01-11T00:27:18.722Z,1019.51
2019-01-11T00:28:19.363Z,1019.51
2019-01-11T00:29:19.995Z,1019.50
2019-01-11T00:30:20.925Z,1019.50
2019-01-11T00:31:21.563Z,1019.48
2019-01-11T00:32:22.204Z,1019.43
2019-01-11T00:33:22.846Z,1019.48
2019-01-11T00:34:23.480Z,1019.49
2019-01-11T00:35:24.114Z,1019.43
2019-01-11T00:36:24.753Z,1019.47
2019-01-11T00:37:25.383Z,1019.45
2019-01-11T00:38:26.015Z,1019.45
2019-01-11T00:39:26.650Z,1019.41
2019-01-11T00:40:27.282Z,1019.40
2019-01-11T00:41:27.920Z,1019.38
2019-01-11T00:42:28.558Z,1019.35
2019-01-11T00:43:29.201Z,1019.33
2019-01-11T00:44:29.922Z,1019.36
2019-01-11T00:45:30.610Z,1019.32
2019-01-11T00:46:31.261Z,1019.32
2019-01-11T00:47:31.910Z,1019.27
2019-01-11T00:48:32.546Z,1019.27
2019-01-11T00:49:33.165Z,1019.25
2019-01-11T00:50:33.797Z,1019.24
2019-01-11T00:51:34.447Z,1019.18
2019-01-11T00:52:35.085Z,1019.15
2019-01-11T00:53:35.726Z,1019.19
2019-01-11T00:54:36.348Z,1019.21
2019-01-11T00:55:36.987Z,1019.17
2019-01-11T00:56:37.622Z,1019.18
2019-01-11T00:57:38.264Z,1019.19
2019-01-11T00:58:38.884Z,1019.17
2019-01-11T00:59:39.524Z,1019.22
2019-01-11T01:00:40.156Z,1019.18
2019-01-11T01:01:40.792Z,1019.18
2019-01-11T01:02:41.426Z,1019.16
2019-01-11T01:03:42.062Z,1019.20
2019-01-11T01:04:42.695Z,1019.18
2019-01-11T01:05:43.338Z,1019.10
2019-01-11T01:06:43.962Z,1019.15
2019-01-11T01:07:44.609Z,1019.16
2019-01-11T01:08:45.237Z,1019.15
2019-01-11T01:09:45.868Z,1019.13
2019-01-11T01:10:46.523Z,1019.16
2019-01-11T01:11:47.163Z,1019.11
2019-01-11T01:12:47.797Z,1019.15
2019-01-11T01:13:48.446Z,1019.10
2019-01-11T01:14:49.071Z,1019.13
2019-01-11T01:15:49.722Z,1019.18
2019-01-11T01:16:50.341Z,1019.20
2019-01-11T01:17:50.979Z,1019.15
2019-01-11T01:18:51.621Z,1019.13
2019-01-11T01:19:52.258Z,1019.16
2019-01-11T01:20:52.899Z,1019.15
2019-01-11T01:21:53.526Z,1019.18
2019-01-11T01:22:54.161Z,1019.19
2019-01-11T01:23:54.796Z,1019.16
2019-01-11T01:24:55.434Z,1019.12
2019-01-11T01:25:56.067Z,1019.13
2019-01-11T01:26:56.714Z,1019.10
2019-01-11T01:27:57.334Z,1019.11
2019-01-11T01:28:57.971Z,1019.07
2019-01-11T01:29:58.604Z,1019.07
2019-01-11T01:30:59.237Z,1019.10
2019-01-11T01:31:59.882Z,1019.06
2019-01-11T01:33:00.556Z,1019.11
2019-01-11T01:34:01.188Z,1019.07
2019-01-11T01:35:01.936Z,1019.07
2019-01-11T01:36:02.570Z,1019.04
2019-01-11T01:37:03.209Z,1019.04
2019-01-11T01:38:03.899Z,1019.02
2019-01-11T01:39:04.538Z,1019.01
2019-01-11T01:40:05.166Z,1018.99
2019-01-11T01:41:05.814Z,1019.00
2019-01-11T01:42:06.445Z,1018.96
2019-01-11T01:43:07.086Z,1018.97
2019-01-11T01:44:07.739Z,1018.96
2019-01-11T01:45:08.404Z,1018.95
2019-01-11T01:46:09.009Z,1018.97
2019-01-11T01:47:09.638Z,1018.97
2019-01-11T01:48:10.274Z,1018.94
2019-01-11T01:49:10.905Z,1018.89
2019-01-11T01:50:11.542Z,1018.91
2019-01-11T01:51:12.177Z,1018.86
2019-01-11T01:52:12.911Z,1018.89
2019-01-11T01:53:13.542Z,1018.84
2019-01-11T01:54:14.185Z,1018.78
2019-01-11T01:55:14.826Z,1018.80
2019-01-11T01:56:19.184Z,1018.72
2019-01-11T01:57:19.817Z,1018.73
2019-01-11T01:58:20.454Z,1018.77
2019-01-11T01:59:21.143Z,1018.73
2019-01-11T02:00:21.739Z,1018.68
2019-01-11T02:01:22.451Z,1018.69
2019-01-11T02:02:23.080Z,1018.71
2019-01-11T02:03:23.791Z,1018.71
2019-01-11T02:04:24.427Z,1018.68
2019-01-11T02:05:25.066Z,1018.73
2019-01-11T02:06:25.700Z,1018.72
2019-01-11T02:07:26.395Z,1018.73
2019-01-11T02:08:27.011Z,1018.68
2019-01-11T02:09:27.719Z,1018.76
2019-01-11T02:10:28.373Z,1018.71
2019-01-11T02:11:28.996Z,1018.72
2019-01-11T02:12:29.634Z,1018.78
2019-01-11T02:13:30.264Z,1018.71
2019-01-11T02:14:30.896Z,1018.73
2019-01-11T02:15:31.532Z,1018.63
2019-01-11T02:16:32.166Z,1018.67
2019-01-11T02:17:32.805Z,1018.68
2019-01-11T02:18:33.438Z,1018.66
2019-01-11T02:19:34.071Z,1018.62
2019-01-11T02:20:34.707Z,1018.59
2019-01-11T02:21:35.377Z,1018.68
2019-01-11T02:22:36.013Z,1018.61
2019-01-11T02:23:36.647Z,1018.57
2019-01-11T02:24:37.286Z,1018.61
2019-01-11T02:25:37.925Z,1018.61
2019-01-11T02:26:38.555Z,1018.59
2019-01-11T02:27:39.192Z,1018.51
2019-01-11T02:28:39.826Z,1018.53
2019-01-11T02:29:40.553Z,1018.48
2019-01-11T02:30:41.187Z,1018.51
2019-01-11T02:31:41.817Z,1018.44
2019-01-11T02:32:42.479Z,1018.40
2019-01-11T02:33:43.098Z,1018.39
2019-01-11T02:34:43.725Z,1018.35
2019-01-11T02:35:44.355Z,1018.36
2019-01-11T02:36:45.000Z,1018.34
2019-01-11T02:37:45.626Z,1018.36
2019-01-11T02:38:46.257Z,1018.35
2019-01-11T02:39:46.916Z,1018.30
2019-01-11T02:40:47.536Z,1018.32
2019-01-11T02:41:48.162Z,1018.32
2019-01-11T02:42:48.800Z,1018.35
2019-01-11T02:43:49.438Z,1018.32
2019-01-11T02:44:50.074Z,1018.30
2019-01-11T02:45:50.714Z,1018.26
2019-01-11T02:46:51.344Z,1018.35
2019-01-11T02:47:51.977Z,1018.38
2019-01-11T02:48:52.628Z,1018.37
2019-01-11T02:49:53.275Z,1018.36
2019-01-11T02:50:53.913Z,1018.33
2019-01-11T02:51:54.592Z,1018.36
2019-01-11T02:52:55.189Z,1018.39
2019-01-11T02:53:55.826Z,1018.39
2019-01-11T02:54:56.453Z,1018.35
2019-01-11T02:55:57.088Z,1018.38
2019-01-11T02:56:57.723Z,1018.36
2019-01-11T02:57:58.352Z,1018.34
2019-01-11T02:58:59.003Z,1018.35
2019-01-11T02:59:59.636Z,1018.30
2019-01-11T03:01:00.296Z,1018.32
2019-01-11T03:02:00.904Z,1018.35
2019-01-11T03:03:01.554Z,1018.32
2019-01-11T03:04:02.196Z,1018.30
2019-01-11T03:05:02.900Z,1018.30
2019-01-11T03:06:03.535Z,1018.32
2019-01-11T03:07:04.256Z,1018.27
2019-01-11T03:08:04.878Z,1018.31
2019-01-11T03:09:05.587Z,1018.29
2019-01-11T03:10:06.222Z,1018.30
2019-01-11T03:11:06.933Z,1018.28
2019-01-11T03:12:07.581Z,1018.23
2019-01-11T03:13:08.278Z,1018.22
2019-01-11T03:14:08.913Z,1018.28
2019-01-11T03:15:09.622Z,1018.19
2019-01-11T03:16:10.261Z,1018.21
2019-01-11T03:17:10.930Z,1018.16
2019-01-11T03:18:11.568Z,1018.18
2019-01-11T03:19:12.277Z,1018.08
2019-01-11T03:20:12.923Z,1018.06
2019-01-11T03:21:13.622Z,1018.05
2019-01-11T03:22:14.251Z,1018.08
2019-01-11T03:23:14.910Z,1018.03
2019-01-11T03:24:15.547Z,1018.01
2019-01-11T03:25:16.301Z,1018.04
2019-01-11T03:26:16.891Z,1017.98
2019-01-11T03:27:17.598Z,1017.98
2019-01-11T03:28:18.646Z,1018.01
2019-01-11T03:29:19.351Z,1017.96
2019-01-11T03:30:20.097Z,1017.96
2019-01-11T03:31:20.710Z,1017.90
2019-01-11T03:32:21.338Z,1017.97
2019-01-11T03:33:22.043Z,1017.96
2019-01-11T03:34:22.680Z,1017.89
2019-01-11T03:35:23.389Z,1017.92
2019-01-11T03:36:24.042Z,1017.86
2019-01-11T03:37:24.701Z,1017.90
2019-01-11T03:38:25.336Z,1017.88
2019-01-11T03:39:26.045Z,1017.89
2019-01-11T03:40:26.690Z,1017.88
2019-01-11T03:41:27.412Z,1017.94
2019-01-11T03:42:28.038Z,1017.91
2019-01-11T03:43:30.171Z,1017.95
2019-01-11T03:44:30.877Z,1017.94
2019-01-11T03:45:31.511Z,1017.95
2019-01-11T03:46:32.205Z,1017.95
2019-01-11T03:47:32.847Z,1017.96
2019-01-11T03:48:33.545Z,1017.95
2019-01-11T03:49:34.191Z,1017.93
2019-01-11T03:50:34.902Z,1017.93
2019-01-11T03:51:35.536Z,1017.90
2019-01-11T03:52:36.242Z,1017.94
2019-01-11T03:53:36.890Z,1017.97
2019-01-11T03:54:37.587Z,1017.90
2019-01-11T03:55:38.223Z,1017.92
2019-01-11T03:56:38.931Z,1017.86
2019-01-11T03:57:39.569Z,1017.89
2019-01-11T03:58:40.278Z,1017.87
2019-01-11T03:59:40.915Z,1017.83
2019-01-11T04:00:41.639Z,1017.80
2019-01-11T04:01:42.262Z,1017.84
2019-01-11T04:02:42.972Z,1017.84
2019-01-11T04:03:43.606Z,1017.80
2019-01-11T04:04:44.315Z,1017.84
2019-01-11T04:05:44.952Z,1017.85
2019-01-11T04:06:45.659Z,1017.82
2019-01-11T04:07:46.308Z,1017.82
2019-01-11T04:08:47.003Z,1017.85
2019-01-11T04:09:47.639Z,1017.83
2019-01-11T04:10:48.383Z,1017.81
2019-01-11T04:11:49.012Z,1017.80
2019-01-11T04:12:49.702Z,1017.79
2019-01-11T04:13:50.346Z,1017.85
2019-01-11T04:14:51.097Z,1017.90
2019-01-11T04:15:51.681Z,1017.82
2019-01-11T04:16:52.383Z,1017.82
2019-01-11T04:17:53.015Z,1017.85
2019-01-11T04:18:54.745Z,1017.87
2019-01-11T04:20:01.777Z,1017.87
2019-01-11T04:20:56.100Z,1017.86
2019-01-11T04:21:56.739Z,1017.85
2019-01-11T04:22:57.445Z,1017.82
2019-01-11T04:23:58.081Z,1017.88
2019-01-11T04:24:58.820Z,1017.84
2019-01-11T04:25:59.447Z,1017.82
2019-01-11T04:27:00.133Z,1017.81
2019-01-11T04:28:00.791Z,1017.81
2019-01-11T04:29:01.483Z,1017.78
2019-01-11T04:30:02.119Z,1017.74
2019-01-11T04:31:02.826Z,1017.71
2019-01-11T04:32:03.467Z,1017.71
2019-01-11T04:33:04.173Z,1017.67
2019-01-11T04:34:04.824Z,1017.66
2019-01-11T04:35:05.519Z,1017.60
2019-01-11T04:36:06.165Z,1017.52
2019-01-11T04:37:06.869Z,1017.55
2019-01-11T04:38:07.503Z,1017.50
2019-01-11T04:39:08.208Z,1017.47
2019-01-11T04:40:09.231Z,1017.52
2019-01-11T04:41:09.555Z,1017.54
2019-01-11T04:42:10.196Z,1017.52
2019-01-11T04:43:10.894Z,1017.54
2019-01-11T04:44:11.537Z,1017.55
2019-01-11T04:45:12.241Z,1017.53
2019-01-11T04:46:12.881Z,1017.56
2019-01-11T04:47:13.557Z,1017.59
2019-01-11T04:48:14.199Z,1017.55
2019-01-11T04:49:14.900Z,1017.55
2019-01-11T04:50:15.541Z,1017.55
2019-01-11T04:51:16.239Z,1017.60
2019-01-11T04:52:16.887Z,1017.62
2019-01-11T04:53:17.593Z,1017.62
2019-01-11T04:54:18.222Z,1017.62
2019-01-11T04:55:18.938Z,1017.63
2019-01-11T04:56:19.577Z,1017.60
2019-01-11T04:57:20.281Z,1017.59
2019-01-11T04:58:20.925Z,1017.60
2019-01-11T04:59:21.635Z,1017.65
2019-01-11T05:00:22.276Z,1017.63
2019-01-11T05:01:22.973Z,1017.66
2019-01-11T05:02:23.611Z,1017.61
2019-01-11T05:03:24.217Z,1017.66
2019-01-11T05:04:24.850Z,1017.64
2019-01-11T05:05:25.559Z,1017.61
2019-01-11T05:06:26.206Z,1017.61
2019-01-11T05:07:26.906Z,1017.63
2019-01-11T05:08:27.540Z,1017.60
2019-01-11T05:09:28.253Z,1017.60
2019-01-11T05:10:28.893Z,1017.58
2019-01-11T05:11:29.597Z,1017.55
2019-01-11T05:12:30.234Z,1017.52
2019-01-11T05:13:30.947Z,1017.50
2019-01-11T05:14:31.578Z,1017.51
2019-01-11T05:15:32.291Z,1017.49
2019-01-11T05:16:39.294Z,1017.52
2019-01-11T05:17:33.634Z,1017.49
2019-01-11T05:18:34.275Z,1017.52
2019-01-11T05:19:34.979Z,1017.43
2019-01-11T05:20:35.615Z,1017.47
2019-01-11T05:21:36.323Z,1017.42
2019-01-11T05:22:36.959Z,1017.37
2019-01-11T05:23:37.677Z,1017.36
2019-01-11T05:24:38.308Z,1017.36
2019-01-11T05:25:39.009Z,1017.34
2019-01-11T05:26:39.651Z,1017.35
2019-01-11T05:27:40.360Z,1017.37
2019-01-11T05:28:40.993Z,1017.39
2019-01-11T05:29:43.173Z,1017.38
2019-01-11T05:30:43.809Z,1017.34
2019-01-11T05:31:44.458Z,1017.38
2019-01-11T05:32:45.091Z,1017.37
2019-01-11T05:33:45.725Z,1017.33
2019-01-11T05:34:46.361Z,1017.34
2019-01-11T05:35:46.998Z,1017.39
2019-01-11T05:36:47.634Z,1017.32
2019-01-11T05:37:48.295Z,1017.33
2019-01-11T05:38:48.922Z,1017.34
2019-01-11T05:39:49.565Z,1017.33
2019-01-11T05:40:50.196Z,1017.38
2019-01-11T05:41:50.830Z,1017.38
2019-01-11T05:42:51.461Z,1017.35
2019-01-11T05:43:52.099Z,1017.30
2019-01-11T05:44:52.734Z,1017.32
2019-01-11T05:45:53.369Z,1017.33
2019-01-11T05:46:54.026Z,1017.28
2019-01-11T05:47:54.679Z,1017.30
2019-01-11T05:48:55.333Z,1017.30
2019-01-11T05:49:56.029Z,1017.29
2019-01-11T05:50:56.662Z,1017.27
2019-01-11T05:51:57.364Z,1017.28
2019-01-11T05:52:58.077Z,1017.27
2019-01-11T05:53:58.712Z,1017.30
2019-01-11T05:54:59.352Z,1017.27
2019-01-11T05:56:00.056Z,1017.23
2019-01-11T05:57:00.698Z,1017.20
2019-01-11T05:58:01.400Z,1017.21
2019-01-11T05:59:02.040Z,1017.25
2019-01-11T06:00:03.772Z,1017.23
2019-01-11T06:01:04.417Z,1017.20
2019-01-11T06:02:05.118Z,1017.15
2019-01-11T06:03:05.756Z,1017.19
2019-01-11T06:04:07.486Z,1017.24
2019-01-11T06:05:08.124Z,1017.21
2019-01-11T06:06:08.881Z,1017.23
2019-01-11T06:07:09.511Z,1017.26
2019-01-11T06:08:10.225Z,1017.28
2019-01-11T06:09:10.857Z,1017.30
2019-01-11T06:10:11.568Z,1017.34
2019-01-11T06:11:12.200Z,1017.31
2019-01-11T06:12:12.910Z,1017.25
2019-01-11T06:13:13.546Z,1017.29
2019-01-11T06:14:14.257Z,1017.32
2019-01-11T06:15:14.890Z,1017.31
2019-01-11T06:16:15.600Z,1017.35
2019-01-11T06:17:16.232Z,1017.35
2019-01-11T06:18:16.969Z,1017.37
2019-01-11T06:19:17.580Z,1017.36
2019-01-11T06:20:18.290Z,1017.34
2019-01-11T06:21:18.940Z,1017.33
2019-01-11T06:22:19.631Z,1017.30
2019-01-11T06:23:20.268Z,1017.31
2019-01-11T06:24:20.990Z,1017.34
2019-01-11T06:25:21.630Z,1017.33
2019-01-11T06:26:22.327Z,1017.30
2019-01-11T06:27:22.963Z,1017.33
2019-01-11T06:28:23.674Z,1017.36
2019-01-11T06:29:24.305Z,1017.32
2019-01-11T06:30:24.947Z,1017.31
2019-01-11T06:31:25.576Z,1017.29
2019-01-11T06:32:26.220Z,1017.29
2019-01-11T06:33:26.863Z,1017.24
2019-01-11T06:34:27.504Z,1017.26
2019-01-11T06:35:28.141Z,1017.31
2019-01-11T06:36:28.789Z,1017.29
2019-01-11T06:37:29.431Z,1017.31
2019-01-11T06:38:30.068Z,1017.26
2019-01-11T06:39:30.709Z,1017.30
2019-01-11T06:40:31.345Z,1017.30
2019-01-11T06:41:32.036Z,1017.25
2019-01-11T06:42:32.671Z,1017.24
2019-01-11T06:43:33.319Z,1017.26
2019-01-11T06:44:38.919Z,1017.28
2019-01-11T06:45:34.582Z,1017.29
2019-01-11T06:46:35.198Z,1017.28
2019-01-11T06:47:35.839Z,1017.28
2019-01-11T06:48:36.486Z,1017.22
2019-01-11T06:49:37.123Z,1017.19
2019-01-11T06:50:37.755Z,1017.17
2019-01-11T06:51:38.383Z,1017.16
2019-01-11T06:52:39.012Z,1017.17
2019-01-11T06:53:39.658Z,1017.17
2019-01-11T06:54:40.293Z,1017.18
2019-01-11T06:55:40.931Z,1017.15
2019-01-11T06:56:41.565Z,1017.14
2019-01-11T06:57:42.197Z,1017.17
2019-01-11T06:58:42.830Z,1017.07
2019-01-11T06:59:43.462Z,1017.14
2019-01-11T07:00:44.099Z,1017.14
2019-01-11T07:01:44.744Z,1017.09
2019-01-11T07:02:45.378Z,1017.08
2019-01-11T07:03:46.020Z,1017.12
2019-01-11T07:04:46.653Z,1017.16
2019-01-11T07:05:47.284Z,1017.15
2019-01-11T07:06:47.979Z,1017.12
2019-01-11T07:07:48.609Z,1017.17
2019-01-11T07:08:49.276Z,1017.24
2019-01-11T07:09:50.353Z,1017.28
2019-01-11T07:10:50.736Z,1017.35
2019-01-11T07:11:51.525Z,1017.35
2019-01-11T07:12:52.145Z,1017.38
2019-01-11T07:13:52.838Z,1017.39
2019-01-11T07:14:53.522Z,1017.37
2019-01-11T07:15:54.180Z,1017.40
2019-01-11T07:16:54.813Z,1017.37
2019-01-11T07:17:55.514Z,1017.40
2019-01-11T07:18:56.155Z,1017.36
2019-01-11T07:19:58.845Z,1017.35
2019-01-11T07:20:59.484Z,1017.39
2019-01-11T07:22:00.170Z,1017.40
2019-01-11T07:23:00.811Z,1017.39
2019-01-11T07:24:01.498Z,1017.39
2019-01-11T07:25:02.130Z,1017.41
2019-01-11T07:26:02.845Z,1017.44
2019-01-11T07:27:03.478Z,1017.44
2019-01-11T07:28:04.182Z,1017.48
2019-01-11T07:29:04.832Z,1017.43
2019-01-11T07:30:06.556Z,1017.40
2019-01-11T07:31:07.213Z,1017.40
2019-01-11T07:32:08.919Z,1017.38
2019-01-11T07:33:09.585Z,1017.40
2019-01-11T07:34:10.270Z,1017.36
2019-01-11T07:35:10.914Z,1017.41
2019-01-11T07:36:11.626Z,1017.40
2019-01-11T07:37:12.255Z,1017.35
2019-01-11T07:38:12.961Z,1017.36
2019-01-11T07:39:13.614Z,1017.37
2019-01-11T07:40:14.302Z,1017.38
2019-01-11T07:41:16.056Z,1017.39
2019-01-11T07:42:16.685Z,1017.44
2019-01-11T07:43:17.400Z,1017.40
2019-01-11T07:44:18.033Z,1017.35
2019-01-11T07:45:18.675Z,1017.33
2019-01-11T07:46:19.364Z,1017.38
2019-01-11T07:47:20.002Z,1017.37
2019-01-11T07:48:22.761Z,1017.36
2019-01-11T07:49:23.477Z,1017.35
2019-01-11T07:50:26.060Z,1017.35
2019-01-11T07:51:26.714Z,1017.31
2019-01-11T07:52:27.403Z,1017.27
2019-01-11T07:53:28.041Z,1017.32
2019-01-11T07:54:29.769Z,1017.31
2019-01-11T07:55:30.398Z,1017.27
2019-01-11T07:56:33.054Z,1017.22
2019-01-11T07:57:33.703Z,1017.24
2019-01-11T07:58:34.408Z,1017.26
2019-01-11T07:59:35.046Z,1017.24
2019-01-11T08:00:37.804Z,1017.23
2019-01-11T08:01:38.435Z,1017.24
2019-01-11T08:02:39.066Z,1017.27
2019-01-11T08:03:40.781Z,1017.21
2019-01-11T08:04:41.425Z,1017.20
2019-01-11T08:05:42.148Z,1017.23
2019-01-11T08:06:42.779Z,1017.29
2019-01-11T08:07:43.480Z,1017.31
2019-01-11T08:08:44.117Z,1017.36
2019-01-11T08:09:45.860Z,1017.34
2019-01-11T08:10:46.504Z,1017.31
2019-01-11T08:11:47.113Z,1017.31
2019-01-11T08:12:48.838Z,1017.32
2019-01-11T08:13:49.472Z,1017.31
2019-01-11T08:14:51.204Z,1017.31
2019-01-11T08:15:51.839Z,1017.33
2019-01-11T08:16:54.509Z,1017.30
2019-01-11T08:17:55.129Z,1017.36
2019-01-11T08:18:56.865Z,1017.34
2019-01-11T08:19:57.500Z,1017.38
2019-01-11T08:20:59.233Z,1017.33
2019-01-11T08:21:59.868Z,1017.35
2019-01-11T08:23:00.590Z,1017.35
2019-01-11T08:24:01.221Z,1017.41
2019-01-11T08:25:03.878Z,1017.47
2019-01-11T08:26:04.509Z,1017.42
2019-01-11T08:27:06.246Z,1017.47
2019-01-11T08:28:06.873Z,1017.45
2019-01-11T08:29:07.622Z,1017.47
2019-01-11T08:30:08.259Z,1017.42
2019-01-11T08:31:08.938Z,1017.42
2019-01-11T08:32:09.580Z,1017.39
2019-01-11T08:33:10.220Z,1017.41
2019-01-11T08:34:10.859Z,1017.38
2019-01-11T08:35:11.498Z,1017.39
2019-01-11T08:36:12.136Z,1017.41
2019-01-11T08:37:12.767Z,1017.39
2019-01-11T08:38:13.399Z,1017.34
2019-01-11T08:39:14.049Z,1017.37
2019-01-11T08:40:14.693Z,1017.34
2019-01-11T08:41:15.324Z,1017.39
2019-01-11T08:42:15.972Z,1017.35
2019-01-11T08:43:16.597Z,1017.38
2019-01-11T08:44:18.342Z,1017.38
2019-01-11T08:45:18.999Z,1017.38
2019-01-11T08:46:19.619Z,1017.35
2019-01-11T08:47:20.255Z,1017.32
2019-01-11T08:48:20.897Z,1017.33
2019-01-11T08:49:21.531Z,1017.34
2019-01-11T08:50:22.166Z,1017.38
2019-01-11T08:51:22.900Z,1017.36
2019-01-11T08:52:23.589Z,1017.38
2019-01-11T08:53:24.237Z,1017.38
2019-01-11T08:54:24.904Z,1017.34
2019-01-11T08:55:25.599Z,1017.38
2019-01-11T08:56:26.253Z,1017.38
2019-01-11T08:57:26.887Z,1017.37
2019-01-11T08:58:27.514Z,1017.33
2019-01-11T08:59:28.150Z,1017.37
2019-01-11T09:00:28.789Z,1017.35
2019-01-11T09:01:29.421Z,1017.29
2019-01-11T09:02:30.068Z,1017.30
2019-01-11T09:03:30.804Z,1017.32
2019-01-11T09:04:31.448Z,1017.30
2019-01-11T09:05:32.086Z,1017.26
2019-01-11T09:06:32.724Z,1017.28
2019-01-11T09:07:33.348Z,1017.26
2019-01-11T09:08:33.991Z,1017.23
2019-01-11T09:09:34.628Z,1017.17
2019-01-11T09:10:35.263Z,1017.14
2019-01-11T09:11:35.899Z,1017.12
2019-01-11T09:12:36.533Z,1017.13
2019-01-11T09:13:37.170Z,1017.10
2019-01-11T09:14:37.810Z,1017.08
2019-01-11T09:15:38.445Z,1017.11
2019-01-11T09:16:39.086Z,1017.11
2019-01-11T09:17:39.720Z,1017.03
2019-01-11T09:18:40.435Z,1017.01
2019-01-11T09:19:41.063Z,1017.06
2019-01-11T09:20:41.699Z,1017.02
2019-01-11T09:21:42.348Z,1017.05
2019-01-11T09:22:42.970Z,1017.09
2019-01-11T09:23:43.637Z,1017.08
2019-01-11T09:24:44.272Z,1017.14
2019-01-11T09:25:44.912Z,1017.09
2019-01-11T09:26:45.551Z,1017.12
2019-01-11T09:27:46.184Z,1017.10
2019-01-11T09:28:46.824Z,1017.17
2019-01-11T09:29:47.460Z,1017.18
2019-01-11T09:30:48.099Z,1017.17
2019-01-11T09:31:48.726Z,1017.12
2019-01-11T09:32:49.409Z,1017.15
2019-01-11T09:33:50.048Z,1017.11
2019-01-11T09:34:50.754Z,1017.12
2019-01-11T09:35:51.388Z,1017.12
2019-01-11T09:36:52.181Z,1017.12
2019-01-11T09:37:52.734Z,1017.05
2019-01-11T09:38:53.376Z,1017.03
2019-01-11T09:39:54.041Z,1017.01
2019-01-11T09:40:54.665Z,1017.06
2019-01-11T09:41:55.283Z,1017.02
2019-01-11T09:42:55.980Z,1017.03
2019-01-11T09:43:56.563Z,1017.00
2019-01-11T09:44:57.199Z,1016.98
2019-01-11T09:45:57.845Z,1016.96
2019-01-11T09:46:58.514Z,1017.01
2019-01-11T09:47:59.146Z,1017.01
2019-01-11T09:48:59.807Z,1017.02
2019-01-11T09:50:00.420Z,1017.02
2019-01-11T09:51:01.074Z,1017.00
2019-01-11T09:52:01.711Z,1017.01
2019-01-11T09:53:02.352Z,1017.08
2019-01-11T09:54:02.983Z,1017.11
2019-01-11T09:55:03.725Z,1017.11
2019-01-11T09:56:04.365Z,1017.13
2019-01-11T09:57:04.995Z,1017.11
2019-01-11T09:58:05.648Z,1017.14
2019-01-11T09:59:06.288Z,1017.19
2019-01-11T10:00:06.925Z,1017.20
2019-01-11T10:01:07.563Z,1017.19
2019-01-11T10:02:08.206Z,1017.19
2019-01-11T10:03:08.855Z,1017.20
2019-01-11T10:04:09.486Z,1017.19
2019-01-11T10:05:10.128Z,1017.18
2019-01-11T10:06:11.820Z,1017.19
2019-01-11T10:07:12.448Z,1017.18
2019-01-11T10:08:14.184Z,1017.17
2019-01-11T10:09:14.807Z,1017.09
2019-01-11T10:10:15.521Z,1017.12
2019-01-11T10:11:16.162Z,1017.10
2019-01-11T10:12:16.861Z,1017.10
2019-01-11T10:13:17.510Z,1017.11
2019-01-11T10:14:41.700Z,1017.10
2019-01-11T10:15:42.331Z,1017.09
2019-01-11T10:16:51.816Z,1017.11
2019-01-11T10:17:52.451Z,1017.08
2019-01-11T10:18:54.176Z,1017.04
2019-01-11T10:19:54.806Z,1017.06
2019-01-11T10:20:56.542Z,1017.08
2019-01-11T10:21:57.180Z,1017.10
2019-01-11T10:23:12.736Z,1017.11
2019-01-11T10:24:13.370Z,1017.09
2019-01-11T10:25:14.080Z,1017.11
2019-01-11T10:26:14.713Z,1017.10
2019-01-11T10:27:24.246Z,1017.07
2019-01-11T10:28:24.885Z,1017.09
2019-01-11T10:29:25.631Z,1017.09
2019-01-11T10:30:28.191Z,1017.03
2019-01-11T10:31:28.833Z,1017.04
2019-01-11T10:32:29.500Z,1017.00
2019-01-11T10:33:35.962Z,1017.02
2019-01-11T10:34:30.773Z,1017.04
2019-01-11T10:35:31.419Z,1017.03
2019-01-11T10:36:32.036Z,1017.01
2019-01-11T10:37:33.335Z,1017.02
2019-01-11T10:38:33.372Z,1016.96
2019-01-11T10:39:34.003Z,1016.92
2019-01-11T10:40:34.645Z,1016.95
2019-01-11T10:41:35.337Z,1016.94
2019-01-11T10:42:35.975Z,1016.98
2019-01-11T10:43:36.616Z,1016.93
2019-01-11T10:44:37.241Z,1016.94
2019-01-11T10:45:37.927Z,1016.94
2019-01-11T10:46:38.557Z,1017.00
2019-01-11T10:47:39.201Z,1016.98
2019-01-11T10:48:39.828Z,1016.98
2019-01-11T10:49:40.462Z,1017.01
2019-01-11T10:50:41.107Z,1016.94
2019-01-11T10:51:41.742Z,1016.96
2019-01-11T10:52:42.381Z,1016.98
2019-01-11T10:53:43.031Z,1016.99
2019-01-11T10:54:43.675Z,1016.97
2019-01-11T10:55:44.305Z,1016.95
2019-01-11T10:56:44.947Z,1016.94
2019-01-11T10:57:45.614Z,1016.92
2019-01-11T10:58:46.231Z,1016.94
2019-01-11T10:59:47.959Z,1016.98
2019-01-11T11:00:48.590Z,1016.88
2019-01-11T11:01:49.246Z,1016.89
2019-01-11T11:02:49.867Z,1016.91
2019-01-11T11:03:50.530Z,1016.93
2019-01-11T15:59:23.978Z,1015.31
2019-01-11T16:00:24.628Z,1015.33
2019-01-11T16:01:25.296Z,1015.36
2019-01-11T16:02:25.969Z,1015.38
2019-01-11T16:03:26.573Z,1015.30
2019-01-11T16:04:27.220Z,1015.38
2019-01-11T16:05:27.856Z,1015.30
2019-01-11T16:06:28.592Z,1015.35
2019-01-11T16:07:29.255Z,1015.36
2019-01-11T16:08:29.900Z,1015.36
2019-01-11T16:09:30.545Z,1015.38
2019-01-11T16:10:31.173Z,1015.41
2019-01-11T16:11:31.849Z,1015.42
2019-01-11T16:12:32.492Z,1015.45
2019-01-11T16:13:33.141Z,1015.40
2019-01-11T16:14:33.769Z,1015.44
2019-01-11T16:15:34.418Z,1015.44
2019-01-11T16:16:35.047Z,1015.50
2019-01-11T16:17:35.699Z,1015.47
2019-01-11T16:18:36.365Z,1015.49
2019-01-11T16:19:37.085Z,1015.52
2019-01-11T16:20:37.887Z,1015.51
2019-01-11T16:21:38.520Z,1015.48
2019-01-11T16:22:39.716Z,1015.49
2019-01-11T16:23:39.860Z,1015.54
2019-01-11T16:24:40.589Z,1015.48
2019-01-11T16:25:41.240Z,1015.47
2019-01-11T16:26:42.009Z,1015.52
2019-01-11T16:27:42.633Z,1015.49
2019-01-11T16:28:43.364Z,1015.51
2019-01-11T16:29:43.993Z,1015.50
2019-01-11T16:30:44.698Z,1015.56
2019-01-11T16:31:45.337Z,1015.45
2019-01-11T16:32:46.046Z,1015.49
2019-01-11T16:33:46.685Z,1015.49
2019-01-11T16:34:47.383Z,1015.53
2019-01-11T16:35:48.024Z,1015.56
2019-01-11T16:36:48.732Z,1015.59
2019-01-11T16:37:49.370Z,1015.56
2019-01-11T16:38:50.106Z,1015.56
2019-01-11T16:39:50.732Z,1015.61
2019-01-11T16:40:51.419Z,1015.62
2019-01-11T16:41:52.059Z,1015.62
2019-01-11T16:42:52.696Z,1015.56
2019-01-11T16:43:53.342Z,1015.59
2019-01-11T16:44:53.969Z,1015.60
2019-01-11T16:45:54.611Z,1015.61
2019-01-11T16:46:55.253Z,1015.68
2019-01-11T16:47:55.882Z,1015.64
2019-01-11T16:48:56.594Z,1015.66
2019-01-11T16:49:57.233Z,1015.64
2019-01-11T16:50:57.873Z,1015.64
2019-01-11T16:51:58.507Z,1015.67
2019-01-11T16:52:59.150Z,1015.66
2019-01-11T16:53:59.793Z,1015.67
2019-01-11T16:55:00.426Z,1015.67
2019-01-11T16:56:01.066Z,1015.63
2019-01-11T16:57:01.706Z,1015.62
2019-01-11T16:58:02.351Z,1015.61
2019-01-11T16:59:02.999Z,1015.61
2019-01-11T17:00:03.626Z,1015.64
2019-01-11T17:01:04.271Z,1015.62
2019-01-11T17:02:04.908Z,1015.66
2019-01-11T17:03:05.546Z,1015.65
2019-01-11T17:04:06.231Z,1015.66
2019-01-11T17:05:06.863Z,1015.66
2019-01-11T17:06:07.502Z,1015.61
2019-01-11T17:07:08.141Z,1015.65
2019-01-11T17:08:08.771Z,1015.62
2019-01-11T17:09:09.418Z,1015.64